Time;durP1;ratioP1;P1;durP2;ratioP2;P2;SDS_P1;SDS_P2;PMS_P1;PMS_P2;Temp;Humidity;BMP_temperature;BMP_pressure;BME280_temperature;BME280_humidity;BME280_pressure;Samples;Min_cycle;Max_cycle;Signal;HPM_P1;HPM_P2
2021/07/31 00:01:10;;;;;;;10.40;3.40;;;16.10;99.90;;;;;;5049857;28;20275;-64
2021/07/31 00:03:39;;;;;;;8.43;3.87;;;16.20;99.90;;;;;;5050786;28;20223;-64
2021/07/31 00:06:29;;;;;;;4.53;3.33;;;16.20;99.90;;;;;;5053945;28;20208;-64
2021/07/31 00:08:57;;;;;;;13.80;3.57;;;16.20;99.90;;;;;;5052571;28;20204;-65
2021/07/31 00:11:26;;;;;;;11.73;3.73;;;16.20;99.90;;;;;;5055110;28;20204;-64
2021/07/31 00:13:54;;;;;;;9.20;3.60;;;16.20;99.90;;;;;;5051933;28;20250;-64
2021/07/31 00:16:23;;;;;;;9.87;3.90;;;16.30;99.90;;;;;;5052934;28;20292;-64
2021/07/31 00:18:52;;;;;;;10.23;3.30;;;16.30;99.90;;;;;;5049487;28;20189;-64
2021/07/31 00:21:22;;;;;;;11.77;3.83;;;16.30;99.90;;;;;;5048396;28;20251;-64
2021/07/31 00:23:52;;;;;;;14.47;4.23;;;16.20;99.90;;;;;;5061516;28;20232;-64
2021/07/31 00:26:20;;;;;;;9.30;3.63;;;16.20;99.90;;;;;;5055802;28;20194;-64
2021/07/31 00:28:48;;;;;;;9.30;3.40;;;16.20;99.90;;;;;;5048663;28;20192;-64
2021/07/31 00:31:17;;;;;;;9.47;3.70;;;16.20;99.90;;;;;;5053343;28;20227;-64
2021/07/31 00:33:45;;;;;;;8.63;3.27;;;16.20;99.90;;;;;;5043951;28;20260;-64
2021/07/31 00:36:14;;;;;;;10.17;3.37;;;16.10;99.90;;;;;;5052239;28;21483;-64
2021/07/31 00:38:44;;;;;;;10.50;3.70;;;16.10;99.90;;;;;;5053339;28;20188;-65
2021/07/31 00:41:14;;;;;;;14.57;3.90;;;16.10;99.90;;;;;;5051437;28;20283;-64
2021/07/31 00:43:42;;;;;;;11.90;3.87;;;16.10;99.90;;;;;;5050061;28;20627;-64
2021/07/31 00:46:11;;;;;;;9.43;3.43;;;16.10;99.90;;;;;;5060313;28;20213;-64
2021/07/31 00:48:40;;;;;;;9.87;3.93;;;16.10;99.90;;;;;;5054178;28;20204;-64
2021/07/31 00:51:08;;;;;;;10.23;3.50;;;16.10;99.90;;;;;;5047793;28;20594;-64
2021/07/31 00:53:37;;;;;;;9.63;3.73;;;16.10;99.90;;;;;;5073145;28;20192;-64
2021/07/31 00:56:06;;;;;;;8.53;4.07;;;16.00;99.90;;;;;;5046293;28;20620;-64
2021/07/31 00:58:36;;;;;;;9.30;3.50;;;16.00;99.90;;;;;;5051103;28;20193;-64
2021/07/31 01:01:05;;;;;;;7.23;3.60;;;16.00;99.90;;;;;;5053131;28;20200;-64
2021/07/31 01:03:33;;;;;;;7.17;3.47;;;16.00;99.90;;;;;;5057091;28;20192;-64
2021/07/31 01:06:01;;;;;;;10.00;3.77;;;16.00;99.90;;;;;;5048475;28;20262;-64
2021/07/31 01:08:30;;;;;;;4.50;2.93;;;16.00;99.90;;;;;;5054197;28;20671;-64
2021/07/31 01:11:00;;;;;;;9.33;3.70;;;16.00;99.90;;;;;;5049629;28;20615;-64
2021/07/31 01:13:28;;;;;;;8.67;3.93;;;16.00;99.90;;;;;;5043251;28;20194;-64
2021/07/31 01:16:00;;;;;;;6.37;3.77;;;16.10;99.90;;;;;;5047245;28;20220;-64
2021/07/31 01:18:29;;;;;;;14.33;4.27;;;16.00;99.90;;;;;;5048947;28;20200;-64
2021/07/31 01:20:58;;;;;;;11.97;3.47;;;16.00;99.90;;;;;;5047166;28;20583;-64
2021/07/31 01:23:28;;;;;;;9.43;3.53;;;16.00;99.90;;;;;;5047848;28;20196;-64
2021/07/31 01:25:56;;;;;;;15.63;3.90;;;16.00;99.90;;;;;;5046671;28;20647;-64
2021/07/31 01:28:25;;;;;;;10.77;3.70;;;16.00;99.90;;;;;;5048098;28;20190;-64
2021/07/31 01:30:54;;;;;;;6.83;3.47;;;16.00;99.90;;;;;;5053723;28;20213;-64
2021/07/31 01:33:22;;;;;;;15.50;3.70;;;16.00;99.90;;;;;;5045556;28;20192;-64
2021/07/31 01:35:53;;;;;;;7.97;3.03;;;16.00;99.90;;;;;;5049594;28;21581;-64
2021/07/31 01:38:22;;;;;;;10.00;3.37;;;16.00;99.90;;;;;;5042759;28;20190;-64
2021/07/31 01:40:51;;;;;;;8.70;3.60;;;15.90;99.90;;;;;;5049809;28;20275;-64
2021/07/31 01:43:19;;;;;;;9.10;3.03;;;15.90;99.90;;;;;;5051639;28;20305;-64
2021/07/31 01:45:48;;;;;;;7.30;3.40;;;15.80;99.90;;;;;;5050237;28;20762;-64
2021/07/31 01:48:19;;;;;;;6.37;3.63;;;15.80;99.90;;;;;;5046082;28;20192;-64
2021/07/31 01:50:47;;;;;;;14.50;3.93;;;15.80;99.90;;;;;;5051357;28;20199;-64
2021/07/31 01:53:16;;;;;;;6.70;3.43;;;15.90;99.90;;;;;;5054587;28;20196;-64
2021/07/31 01:55:44;;;;;;;7.13;3.70;;;15.80;99.90;;;;;;5047435;28;20184;-64
2021/07/31 01:58:13;;;;;;;5.50;3.10;;;15.80;99.90;;;;;;5048230;28;20201;-64
2021/07/31 02:00:42;;;;;;;10.53;3.20;;;15.80;99.90;;;;;;5048023;28;20618;-64
2021/07/31 02:03:10;;;;;;;8.00;3.53;;;15.80;99.90;;;;;;5046991;28;21373;-64
2021/07/31 02:05:38;;;;;;;10.27;3.60;;;15.80;99.90;;;;;;5051246;28;20205;-64
2021/07/31 02:08:07;;;;;;;9.07;3.40;;;15.80;99.90;;;;;;5045913;28;20286;-64
2021/07/31 02:10:35;;;;;;;7.30;3.63;;;15.80;99.90;;;;;;5047529;28;20204;-64
2021/07/31 02:13:03;;;;;;;8.40;3.53;;;15.80;99.90;;;;;;5055763;28;20217;-64
2021/07/31 02:15:40;;;;;;;10.70;3.67;;;15.80;99.90;;;;;;5052599;28;20213;-64
2021/07/31 02:18:08;;;;;;;10.10;3.40;;;15.80;99.90;;;;;;5049685;28;20227;-64
2021/07/31 02:20:37;;;;;;;6.57;3.40;;;15.70;99.90;;;;;;5054726;28;20298;-64
2021/07/31 02:23:06;;;;;;;9.57;3.23;;;15.80;99.90;;;;;;5052673;28;20251;-64
2021/07/31 02:25:34;;;;;;;7.83;3.63;;;15.80;99.90;;;;;;5052504;28;20713;-64
2021/07/31 02:28:04;;;;;;;8.30;3.13;;;15.70;99.90;;;;;;5051565;28;20632;-64
2021/07/31 02:30:32;;;;;;;6.33;3.10;;;15.60;99.90;;;;;;5047760;28;20286;-64
2021/07/31 02:33:02;;;;;;;6.97;3.40;;;15.60;99.90;;;;;;5049637;28;20238;-64
2021/07/31 02:35:34;;;;;;;8.53;3.43;;;15.50;99.90;;;;;;5048114;28;20199;-64
2021/07/31 02:38:03;;;;;;;10.87;3.70;;;15.50;99.90;;;;;;5049241;28;20220;-64
2021/07/31 02:40:31;;;;;;;9.93;3.50;;;15.50;99.90;;;;;;5045897;28;20798;-64
2021/07/31 02:43:02;;;;;;;7.07;3.20;;;15.40;99.90;;;;;;5051389;28;20196;-64
2021/07/31 02:45:30;;;;;;;9.97;3.07;;;15.40;99.90;;;;;;5048583;28;20220;-64
2021/07/31 02:47:59;;;;;;;6.00;3.60;;;15.30;99.90;;;;;;5057102;28;20223;-64
2021/07/31 02:50:29;;;;;;;7.33;3.40;;;15.30;99.90;;;;;;5043690;28;20287;-64
2021/07/31 02:52:57;;;;;;;7.53;3.13;;;15.30;99.90;;;;;;5052855;28;20200;-64
2021/07/31 02:55:25;;;;;;;7.00;3.13;;;15.20;99.90;;;;;;5044683;28;20243;-64
2021/07/31 02:57:54;;;;;;;3.30;2.73;;;15.20;99.90;;;;;;5048685;28;20304;-64
2021/07/31 03:00:22;;;;;;;4.80;3.10;;;15.20;99.90;;;;;;5052506;28;20198;-64
2021/07/31 03:02:50;;;;;;;10.90;3.17;;;15.20;99.90;;;;;;5049524;28;20579;-64
2021/07/31 03:05:19;;;;;;;10.07;3.30;;;15.20;99.90;;;;;;5043861;28;20208;-64
2021/07/31 03:07:48;;;;;;;6.30;3.17;;;15.10;99.90;;;;;;5048099;28;20284;-64
2021/07/31 03:10:16;;;;;;;7.27;3.60;;;15.10;99.90;;;;;;5045671;28;20274;-64
2021/07/31 03:12:45;;;;;;;6.13;3.10;;;15.10;99.90;;;;;;5050698;28;20187;-64
2021/07/31 03:15:13;;;;;;;3.30;3.00;;;15.00;99.90;;;;;;5052756;28;20288;-64
2021/07/31 03:17:41;;;;;;;6.00;3.33;;;15.00;99.90;;;;;;5050990;28;20292;-64
2021/07/31 03:20:11;;;;;;;9.67;3.50;;;14.90;99.90;;;;;;5050284;28;20364;-64
2021/07/31 03:22:39;;;;;;;7.50;3.60;;;14.90;99.90;;;;;;5051745;28;20291;-64
2021/07/31 03:25:10;;;;;;;6.03;3.60;;;14.90;99.90;;;;;;5049807;28;20299;-64
2021/07/31 03:27:38;;;;;;;5.53;3.40;;;14.80;99.90;;;;;;5048218;28;20766;-64
2021/07/31 03:30:07;;;;;;;9.20;3.80;;;14.80;99.90;;;;;;5044817;28;20271;-64
2021/07/31 03:32:35;;;;;;;6.70;3.43;;;14.90;99.90;;;;;;5049856;28;20736;-64
2021/07/31 03:35:04;;;;;;;9.03;4.10;;;14.90;99.90;;;;;;5055990;28;20528;-64
2021/07/31 03:37:34;;;;;;;8.73;3.80;;;14.90;99.90;;;;;;5045356;28;20228;-64
2021/07/31 03:40:03;;;;;;;9.60;3.73;;;14.90;99.90;;;;;;5051458;28;20647;-64
2021/07/31 03:42:34;;;;;;;7.77;3.80;;;15.00;99.90;;;;;;5054423;28;20675;-64
2021/07/31 03:45:04;;;;;;;9.70;4.07;;;15.00;99.90;;;;;;5032815;28;20195;-64
2021/07/31 03:47:34;;;;;;;8.83;4.00;;;14.90;99.90;;;;;;5051199;28;20536;-64
2021/07/31 03:50:07;;;;;;;9.17;3.70;;;14.90;99.90;;;;;;5035255;28;20278;-64
2021/07/31 03:53:10;;;;;;;9.83;4.03;;;14.90;99.90;;;;;;5060068;28;20309;-64
2021/07/31 03:55:46;;;;;;;11.57;3.93;;;14.90;99.90;;;;;;5049687;28;20242;-64
2021/07/31 03:58:56;;;;;;;9.97;4.03;;;14.90;99.90;;;;;;5051689;28;20290;-64
2021/07/31 04:01:28;;;;;;;9.20;3.80;;;14.90;99.90;;;;;;5053253;28;20460;-64
2021/07/31 04:03:58;;;;;;;10.40;4.20;;;14.90;99.90;;;;;;5053373;28;20200;-64
2021/07/31 04:07:07;;;;;;;8.07;3.40;;;14.90;99.90;;;;;;5050929;28;20282;-64
2021/07/31 04:09:36;;;;;;;9.03;3.80;;;14.90;99.90;;;;;;5049884;28;20201;-64
2021/07/31 04:12:05;;;;;;;6.27;3.80;;;14.90;99.90;;;;;;5060966;28;20280;-64
2021/07/31 04:14:37;;;;;;;10.73;4.37;;;14.90;99.90;;;;;;5053902;28;20578;-64
2021/07/31 04:17:06;;;;;;;8.50;3.73;;;15.00;99.90;;;;;;5050605;28;20192;-63
2021/07/31 04:19:34;;;;;;;8.70;3.80;;;15.00;99.90;;;;;;5063807;28;20209;-64
2021/07/31 04:22:02;;;;;;;8.07;3.93;;;15.00;99.90;;;;;;5051058;28;20320;-64
2021/07/31 04:24:31;;;;;;;11.10;4.03;;;15.10;99.90;;;;;;5049850;28;20260;-64
2021/07/31 04:26:59;;;;;;;14.13;4.57;;;15.10;99.90;;;;;;5051588;28;20196;-64
2021/07/31 04:29:28;;;;;;;9.40;4.17;;;15.10;99.90;;;;;;5030395;28;20643;-64
2021/07/31 04:31:57;;;;;;;8.97;4.50;;;15.20;99.90;;;;;;5063437;28;20192;-64
2021/07/31 04:34:28;;;;;;;6.03;3.83;;;15.20;99.90;;;;;;5047273;28;20663;-64
2021/07/31 04:37:03;;;;;;;6.17;4.00;;;15.20;99.90;;;;;;5036728;28;20547;-64
2021/07/31 04:39:34;;;;;;;8.00;4.10;;;15.20;99.90;;;;;;5048412;28;20221;-64
2021/07/31 04:42:02;;;;;;;10.23;4.07;;;15.20;99.90;;;;;;5052138;28;20248;-64
2021/07/31 04:44:30;;;;;;;8.33;3.93;;;15.20;99.90;;;;;;5053987;28;20575;-64
2021/07/31 04:47:00;;;;;;;6.77;3.63;;;15.20;99.90;;;;;;5045705;28;20221;-64
2021/07/31 04:49:28;;;;;;;9.47;3.90;;;15.10;99.90;;;;;;5057857;28;20188;-64
2021/07/31 04:51:57;;;;;;;4.77;3.50;;;15.20;99.90;;;;;;5040199;28;20193;-64
2021/07/31 04:54:25;;;;;;;13.53;4.63;;;15.20;99.90;;;;;;5055799;28;20192;-64
2021/07/31 04:56:54;;;;;;;6.63;3.77;;;15.20;99.90;;;;;;5058617;28;20196;-64
2021/07/31 04:59:23;;;;;;;9.83;4.60;;;15.20;99.90;;;;;;5035671;28;20727;-64
2021/07/31 05:01:52;;;;;;;14.63;4.20;;;15.20;99.90;;;;;;5041793;28;20194;-65
2021/07/31 05:04:25;;;;;;;14.53;4.53;;;15.20;99.90;;;;;;5035500;28;20293;-64
2021/07/31 05:07:01;;;;;;;12.37;5.03;;;15.20;99.90;;;;;;5043668;28;20785;-64
2021/07/31 05:09:29;;;;;;;6.00;4.23;;;15.20;99.90;;;;;;5047435;28;20208;-64
2021/07/31 05:11:57;;;;;;;6.97;3.97;;;15.30;99.90;;;;;;5043645;28;20300;-64
2021/07/31 05:14:30;;;;;;;10.03;4.13;;;15.30;99.90;;;;;;5061032;28;20275;-65
2021/07/31 05:16:58;;;;;;;17.83;4.57;;;15.30;99.90;;;;;;5060343;28;20189;-64
2021/07/31 05:19:29;;;;;;;10.63;4.17;;;15.50;99.90;;;;;;5050754;28;20196;-64
2021/07/31 05:21:58;;;;;;;10.20;4.10;;;15.50;99.90;;;;;;5061583;28;20224;-64
2021/07/31 05:24:28;;;;;;;10.90;4.10;;;15.60;99.90;;;;;;5031528;28;20448;-64
2021/07/31 05:26:57;;;;;;;8.30;4.70;;;15.70;99.90;;;;;;5047908;28;20209;-64
2021/07/31 05:29:59;;;;;;;11.40;4.20;;;15.70;99.90;;;;;;5051435;28;20196;-64
2021/07/31 05:32:31;;;;;;;5.47;3.73;;;15.70;99.90;;;;;;5046355;28;20201;-64
2021/07/31 05:35:01;;;;;;;7.07;3.90;;;15.80;99.90;;;;;;5049003;28;20573;-64
2021/07/31 05:37:31;;;;;;;12.63;4.27;;;15.80;99.90;;;;;;5042393;28;20201;-64
2021/07/31 05:40:00;;;;;;;5.77;3.90;;;15.90;99.90;;;;;;5045484;28;20267;-65
2021/07/31 05:42:29;;;;;;;10.87;4.70;;;16.00;99.90;;;;;;5044596;28;20248;-64
2021/07/31 05:44:58;;;;;;;10.80;4.33;;;16.00;99.90;;;;;;5047046;28;20189;-64
2021/07/31 05:47:27;;;;;;;7.90;4.03;;;16.00;99.90;;;;;;5051547;28;20213;-64
2021/07/31 05:49:55;;;;;;;7.97;4.00;;;16.00;99.90;;;;;;5039796;28;20256;-64
2021/07/31 05:52:26;;;;;;;12.30;4.30;;;16.10;99.90;;;;;;5044236;28;20221;-64
2021/07/31 05:54:55;;;;;;;8.83;4.30;;;16.20;99.90;;;;;;5051816;28;20719;-64
2021/07/31 05:57:23;;;;;;;6.67;4.40;;;16.20;99.90;;;;;;5040626;28;20374;-64
2021/07/31 05:59:51;;;;;;;6.77;4.20;;;16.30;99.90;;;;;;5047996;28;20197;-64
2021/07/31 06:02:20;;;;;;;8.83;4.67;;;16.30;99.90;;;;;;5047312;28;20280;-64
2021/07/31 06:04:48;;;;;;;8.17;3.73;;;16.30;99.90;;;;;;5051301;28;20203;-64
2021/07/31 06:07:16;;;;;;;14.80;4.40;;;16.30;99.90;;;;;;5041760;28;20305;-64
2021/07/31 06:09:50;;;;;;;11.17;3.80;;;16.30;99.90;;;;;;5059338;28;20225;-64
2021/07/31 06:12:19;;;;;;;7.07;3.90;;;16.30;99.90;;;;;;5045764;28;20196;-64
2021/07/31 06:14:47;;;;;;;8.30;4.03;;;16.30;99.90;;;;;;5037380;28;20203;-64
2021/07/31 06:17:15;;;;;;;8.97;3.50;;;16.40;99.90;;;;;;5045618;28;20220;-64
2021/07/31 06:19:44;;;;;;;8.80;3.73;;;16.60;99.90;;;;;;5050445;28;20212;-64
2021/07/31 06:22:15;;;;;;;7.13;3.70;;;16.80;99.90;;;;;;5046065;28;20879;-64
2021/07/31 06:24:47;;;;;;;16.47;3.80;;;16.90;99.90;;;;;;5046115;28;20192;-64
2021/07/31 06:27:16;;;;;;;11.10;3.70;;;17.00;99.90;;;;;;5048051;28;20297;-64
2021/07/31 06:29:44;;;;;;;5.27;3.30;;;17.00;99.90;;;;;;5046257;28;20232;-64
2021/07/31 06:32:12;;;;;;;4.77;3.77;;;16.90;99.90;;;;;;5047082;28;20237;-64
2021/07/31 06:34:40;;;;;;;5.07;3.37;;;16.90;99.90;;;;;;5046518;28;20296;-64
2021/07/31 06:37:09;;;;;;;5.47;3.17;;;16.90;99.90;;;;;;5047119;28;20718;-64
2021/07/31 06:39:37;;;;;;;7.10;3.50;;;17.00;99.90;;;;;;5046806;28;20231;-64
2021/07/31 06:42:06;;;;;;;5.93;3.30;;;17.10;99.90;;;;;;5050021;28;20276;-64
2021/07/31 06:44:35;;;;;;;5.57;2.93;;;17.20;99.90;;;;;;5044360;28;20284;-65
2021/07/31 06:47:03;;;;;;;6.33;3.50;;;17.30;99.90;;;;;;5046324;28;20343;-64
2021/07/31 06:49:31;;;;;;;6.80;3.03;;;17.40;99.90;;;;;;5045458;28;20203;-64
2021/07/31 06:51:59;;;;;;;4.80;2.87;;;17.40;99.90;;;;;;5044919;28;20308;-64
2021/07/31 06:54:28;;;;;;;8.50;3.30;;;17.50;99.90;;;;;;5047761;28;20283;-64
2021/07/31 06:56:56;;;;;;;5.67;3.10;;;17.60;99.90;;;;;;5050050;28;20281;-65
2021/07/31 06:59:25;;;;;;;7.23;3.23;;;17.70;99.90;;;;;;5050841;28;20266;-64
2021/07/31 07:01:54;;;;;;;3.33;2.83;;;17.90;99.90;;;;;;5050134;28;20235;-64
2021/07/31 07:04:22;;;;;;;4.80;3.20;;;17.80;99.90;;;;;;5041263;28;20548;-64
2021/07/31 07:06:51;;;;;;;5.43;3.00;;;17.80;99.90;;;;;;5047932;28;20725;-64
2021/07/31 07:09:19;;;;;;;8.23;2.93;;;17.80;99.90;;;;;;5052459;28;20199;-65
2021/07/31 07:11:47;;;;;;;4.63;2.97;;;17.80;99.90;;;;;;5048689;28;20812;-64
2021/07/31 07:14:15;;;;;;;4.73;2.67;;;17.80;99.90;;;;;;5052018;28;20269;-65
2021/07/31 07:16:45;;;;;;;4.20;2.60;;;17.80;99.90;;;;;;5051631;28;20192;-64
2021/07/31 07:19:14;;;;;;;4.43;2.90;;;17.90;99.90;;;;;;5053407;28;20286;-65
2021/07/31 07:21:42;;;;;;;4.30;2.90;;;17.80;99.90;;;;;;5047195;28;20846;-64
2021/07/31 07:24:10;;;;;;;3.43;2.90;;;17.70;99.90;;;;;;5046299;28;20674;-65
2021/07/31 07:26:39;;;;;;;7.23;3.13;;;17.60;99.90;;;;;;5048510;28;20197;-64
2021/07/31 07:29:10;;;;;;;6.30;3.30;;;17.50;99.90;;;;;;5047744;28;20252;-64
2021/07/31 07:31:38;;;;;;;6.27;2.90;;;17.50;99.90;;;;;;5043304;28;20216;-64
2021/07/31 07:34:08;;;;;;;5.37;2.77;;;17.60;99.90;;;;;;5045936;28;20196;-65
2021/07/31 07:36:36;;;;;;;4.63;3.10;;;17.60;99.90;;;;;;5046424;28;20286;-65
2021/07/31 07:39:04;;;;;;;4.90;3.20;;;17.60;99.90;;;;;;5045521;28;20367;-65
2021/07/31 07:41:33;;;;;;;6.20;3.23;;;17.60;99.90;;;;;;5051546;28;20287;-64
2021/07/31 07:44:02;;;;;;;6.20;3.30;;;17.70;99.90;;;;;;5050502;28;20292;-64
2021/07/31 07:46:30;;;;;;;7.23;3.10;;;17.80;99.90;;;;;;5041026;28;20193;-64
2021/07/31 07:48:59;;;;;;;6.30;3.37;;;18.00;99.90;;;;;;5042366;28;20274;-64
2021/07/31 07:51:29;;;;;;;5.03;2.90;;;18.10;99.90;;;;;;5039837;28;20197;-64
2021/07/31 07:53:57;;;;;;;4.60;2.83;;;18.20;99.90;;;;;;5036974;28;20211;-64
2021/07/31 07:56:25;;;;;;;4.73;3.20;;;18.20;99.90;;;;;;5036694;28;20282;-64
2021/07/31 07:58:57;;;;;;;4.37;2.80;;;18.10;99.90;;;;;;5040451;28;20193;-65
2021/07/31 08:01:25;;;;;;;5.57;3.40;;;18.20;99.90;;;;;;5039130;28;20200;-64
2021/07/31 08:03:53;;;;;;;4.37;2.80;;;18.20;99.90;;;;;;5042369;28;20189;-65
2021/07/31 08:06:22;;;;;;;9.60;3.00;;;18.30;99.90;;;;;;5048678;28;20735;-64
2021/07/31 08:08:51;;;;;;;3.10;2.50;;;18.40;99.90;;;;;;5025917;28;20197;-65
2021/07/31 08:11:19;;;;;;;5.30;3.10;;;18.50;99.90;;;;;;5039181;28;20336;-64
2021/07/31 08:13:48;;;;;;;4.07;2.70;;;18.60;99.90;;;;;;5045496;28;20220;-65
2021/07/31 08:16:16;;;;;;;7.83;2.90;;;18.80;99.90;;;;;;5039221;28;20196;-65
2021/07/31 08:18:44;;;;;;;4.10;2.63;;;18.90;99.90;;;;;;5041399;28;20193;-65
2021/07/31 08:21:13;;;;;;;3.37;2.23;;;19.00;99.90;;;;;;5042956;28;20551;-65
2021/07/31 08:23:43;;;;;;;2.77;2.63;;;19.00;99.90;;;;;;5040044;28;20243;-64
2021/07/31 08:26:15;;;;;;;5.07;2.50;;;19.00;99.90;;;;;;5041265;28;20659;-65
2021/07/31 08:28:43;;;;;;;2.90;2.50;;;19.00;99.90;;;;;;5036905;28;20316;-65
2021/07/31 08:31:13;;;;;;;4.67;2.47;;;19.00;99.90;;;;;;5040664;28;20338;-64
2021/07/31 08:33:41;;;;;;;2.93;2.50;;;19.10;99.90;;;;;;5037980;28;20252;-64
2021/07/31 08:36:10;;;;;;;2.93;2.63;;;19.20;99.90;;;;;;5037586;28;20251;-64
2021/07/31 08:38:38;;;;;;;6.53;2.70;;;19.40;99.90;;;;;;5037176;28;20676;-65
2021/07/31 08:41:07;;;;;;;6.83;2.70;;;19.40;99.90;;;;;;5035325;28;20295;-65
2021/07/31 08:43:37;;;;;;;2.40;2.30;;;19.50;99.90;;;;;;5031791;28;20279;-65
2021/07/31 08:46:10;;;;;;;2.40;2.20;;;19.70;99.90;;;;;;5040253;28;20201;-65
2021/07/31 08:48:40;;;;;;;2.53;2.07;;;19.80;99.90;;;;;;5041246;28;20209;-65
2021/07/31 08:51:09;;;;;;;8.30;2.67;;;20.00;99.90;;;;;;5054670;28;20656;-65
2021/07/31 08:53:38;;;;;;;2.63;2.37;;;20.20;99.90;;;;;;5041348;28;20196;-65
2021/07/31 08:56:06;;;;;;;2.47;2.00;;;20.30;99.90;;;;;;5038101;28;21432;-65
2021/07/31 08:58:39;;;;;;;4.80;2.57;;;20.40;99.90;;;;;;5042011;28;20193;-65
2021/07/31 09:01:07;;;;;;;4.13;2.30;;;20.30;99.90;;;;;;5042239;28;20339;-65
2021/07/31 09:03:44;;;;;;;2.17;2.07;;;20.40;99.90;;;;;;5046521;28;20276;-65
2021/07/31 09:06:26;;;;;;;2.90;2.00;;;20.20;99.90;;;;;;5042266;28;20273;-64
2021/07/31 09:08:55;;;;;;;2.67;2.23;;;20.20;99.90;;;;;;5040512;28;20279;-65
2021/07/31 09:11:25;;;;;;;2.37;1.97;;;19.90;99.90;;;;;;5041537;28;20197;-65
2021/07/31 09:16:49;;;;;;;1.80;1.70;;;19.90;99.90;;;;;;5135227;27;21178;-64
2021/07/31 09:19:18;;;;;;;2.23;1.90;;;20.20;99.90;;;;;;5114886;27;20260;-64
2021/07/31 09:21:48;;;;;;;2.77;1.97;;;20.30;99.90;;;;;;5116104;27;20288;-64
2021/07/31 09:24:19;;;;;;;3.60;2.17;;;20.30;99.90;;;;;;5116856;28;20201;-63
2021/07/31 09:26:50;;;;;;;2.23;2.03;;;20.20;99.90;;;;;;5117850;27;20206;-64
2021/07/31 09:29:20;;;;;;;2.30;2.20;;;20.10;99.90;;;;;;5113701;27;20676;-65
2021/07/31 09:31:54;;;;;;;1.93;1.93;;;20.00;99.90;;;;;;5108135;27;20190;-64
2021/07/31 09:34:33;;;;;;;2.00;1.90;;;19.90;99.90;;;;;;5114833;28;20221;-64
2021/07/31 09:37:06;;;;;;;2.83;2.00;;;19.80;99.90;;;;;;5120399;28;20178;-64
2021/07/31 09:39:56;;;;;;;1.97;1.87;;;19.90;99.90;;;;;;5120265;27;20329;-64
2021/07/31 09:42:28;;;;;;;2.50;2.30;;;19.90;99.90;;;;;;5120789;28;20679;-64
2021/07/31 09:44:57;;;;;;;2.20;2.10;;;19.90;99.90;;;;;;5120455;27;20218;-64
2021/07/31 09:47:27;;;;;;;3.20;2.00;;;20.00;99.90;;;;;;5118449;27;20214;-64
2021/07/31 09:49:57;;;;;;;2.50;2.13;;;20.10;99.90;;;;;;5117483;27;20186;-64
2021/07/31 09:52:27;;;;;;;1.90;1.80;;;20.20;99.90;;;;;;5115831;27;20229;-64
2021/07/31 09:54:57;;;;;;;1.80;1.70;;;20.30;99.90;;;;;;5111322;27;20222;-64
2021/07/31 09:57:27;;;;;;;3.37;2.43;;;20.50;99.90;;;;;;5113279;28;20276;-64
2021/07/31 09:59:58;;;;;;;3.00;1.97;;;20.60;99.90;;;;;;5114716;27;20235;-64
2021/07/31 10:02:28;;;;;;;2.10;2.00;;;20.60;99.90;;;;;;5113792;27;21557;-64
2021/07/31 10:05:00;;;;;;;2.17;2.03;;;20.60;99.90;;;;;;5113913;28;20221;-66
2021/07/31 10:07:28;;;;;;;2.13;1.93;;;20.40;99.90;;;;;;5112934;27;21762;-67
2021/07/31 10:09:58;;;;;;;3.63;2.10;;;20.30;99.90;;;;;;5114168;27;20193;-66
2021/07/31 10:12:27;;;;;;;2.67;1.80;;;20.20;99.90;;;;;;5110293;27;20286;-66
2021/07/31 10:15:05;;;;;;;1.97;1.90;;;20.30;99.90;;;;;;5113168;27;20237;-64
2021/07/31 10:17:35;;;;;;;2.10;2.00;;;20.40;99.90;;;;;;5130507;27;20198;-64
2021/07/31 10:20:04;;;;;;;2.10;2.00;;;20.40;99.90;;;;;;5115215;27;20194;-64
2021/07/31 10:22:43;;;;;;;2.20;2.10;;;20.40;99.90;;;;;;5113561;27;20221;-64
2021/07/31 10:25:12;;;;;;;2.87;2.40;;;20.50;99.90;;;;;;5114307;27;20197;-64
2021/07/31 10:27:40;;;;;;;2.60;2.30;;;20.50;99.90;;;;;;5105205;27;20214;-64
2021/07/31 10:30:25;;;;;;;3.20;2.10;;;20.60;99.90;;;;;;5098832;28;20190;-64
2021/07/31 10:32:55;;;;;;;4.73;2.40;;;20.60;99.90;;;;;;5115401;27;20197;-64
2021/07/31 10:35:41;;;;;;;2.30;2.20;;;20.60;99.90;;;;;;5115072;27;20294;-64
2021/07/31 10:38:12;;;;;;;2.00;1.90;;;20.80;99.90;;;;;;5101637;28;20234;-64
2021/07/31 10:40:48;;;;;;;2.67;2.47;;;21.00;99.90;;;;;;5099431;28;20209;-65
2021/07/31 10:43:17;;;;;;;2.40;2.30;;;21.00;99.90;;;;;;5102859;28;20215;-64
2021/07/31 10:45:49;;;;;;;2.80;2.10;;;21.10;99.90;;;;;;5099993;28;20230;-65
2021/07/31 10:48:36;;;;;;;2.30;2.20;;;21.20;99.90;;;;;;5099635;28;20186;-64
2021/07/31 10:51:05;;;;;;;1.93;1.90;;;21.10;99.90;;;;;;5104799;28;20677;-64
2021/07/31 10:53:51;;;;;;;4.13;2.20;;;21.20;99.90;;;;;;5102785;28;20287;-64
2021/07/31 10:56:19;;;;;;;3.20;2.27;;;21.20;99.90;;;;;;5104965;28;20199;-64
2021/07/31 10:59:20;;;;;;;2.27;2.17;;;21.30;99.90;;;;;;5104965;28;20661;-64
2021/07/31 11:01:49;;;;;;;2.10;2.10;;;21.40;99.90;;;;;;5103594;28;20733;-64
2021/07/31 11:04:55;;;;;;;2.73;1.97;;;21.10;99.90;;;;;;5100136;28;20190;-64
2021/07/31 11:07:27;;;;;;;2.37;2.20;;;21.00;99.90;;;;;;5098635;27;20946;-64
2021/07/31 11:10:39;;;;;;;2.17;2.07;;;20.80;99.90;;;;;;5101273;28;20197;-64
2021/07/31 11:13:07;;;;;;;2.67;2.13;;;20.60;99.90;;;;;;5103834;28;20384;-64
2021/07/31 11:15:36;;;;;;;2.00;1.90;;;20.60;99.90;;;;;;5101456;27;20274;-64
2021/07/31 11:18:04;;;;;;;2.30;2.10;;;20.50;99.90;;;;;;5097089;28;20206;-64
2021/07/31 11:20:37;;;;;;;3.10;2.23;;;20.50;99.90;;;;;;5100246;28;20312;-64
2021/07/31 11:23:09;;;;;;;2.50;2.20;;;20.40;99.90;;;;;;5098468;28;20831;-64
2021/07/31 11:25:38;;;;;;;2.60;2.27;;;20.50;99.90;;;;;;5100538;28;20306;-64
2021/07/31 11:28:10;;;;;;;2.30;2.10;;;20.50;99.90;;;;;;5102086;28;20187;-65
2021/07/31 11:30:42;;;;;;;2.37;2.27;;;20.50;99.90;;;;;;5098487;28;20199;-64
2021/07/31 11:33:22;;;;;;;2.17;2.07;;;20.50;99.90;;;;;;5097337;28;20668;-66
2021/07/31 11:35:51;;;;;;;2.73;2.60;;;20.60;99.90;;;;;;5100256;28;20284;-65
2021/07/31 11:38:39;;;;;;;2.53;2.23;;;20.70;99.90;;;;;;5098886;28;20255;-64
2021/07/31 11:41:09;;;;;;;2.30;2.20;;;20.80;99.90;;;;;;5097789;28;20697;-64
2021/07/31 11:43:46;;;;;;;5.27;2.80;;;20.90;99.90;;;;;;5098247;28;20700;-65
2021/07/31 11:46:29;;;;;;;2.27;2.17;;;21.10;99.90;;;;;;5077353;28;20225;-64
2021/07/31 11:48:58;;;;;;;2.30;2.20;;;21.10;99.90;;;;;;5098875;28;20195;-64
2021/07/31 11:51:27;;;;;;;2.40;2.20;;;21.20;99.90;;;;;;5101581;28;20199;-64
2021/07/31 11:54:05;;;;;;;2.00;1.93;;;21.10;99.90;;;;;;5102410;28;20222;-64
2021/07/31 11:56:34;;;;;;;3.43;2.20;;;21.10;99.90;;;;;;5099330;28;20301;-64
2021/07/31 11:59:05;;;;;;;2.50;2.33;;;21.20;99.90;;;;;;5098735;28;20186;-64
2021/07/31 12:01:34;;;;;;;2.33;2.23;;;21.40;99.90;;;;;;5100500;28;20202;-65
2021/07/31 12:04:03;;;;;;;2.37;2.17;;;21.90;99.90;;;;;;5089528;28;20250;-65
2021/07/31 12:06:37;;;;;;;2.27;2.10;;;22.50;99.90;;;;;;5098950;28;20199;-64
2021/07/31 12:09:24;;;;;;;2.20;2.10;;;23.10;99.90;;;;;;5098679;27;20211;-64
2021/07/31 12:11:53;;;;;;;2.43;2.20;;;23.20;99.90;;;;;;5097707;28;20302;-64
2021/07/31 12:14:40;;;;;;;2.37;1.90;;;22.90;99.90;;;;;;5097685;28;20256;-64
2021/07/31 12:17:22;;;;;;;2.60;1.90;;;22.50;99.90;;;;;;5099300;28;20300;-65
2021/07/31 12:19:55;;;;;;;2.30;2.20;;;22.10;99.90;;;;;;5098697;28;20188;-64
2021/07/31 12:22:25;;;;;;;2.40;2.20;;;21.90;99.90;;;;;;5098327;28;20198;-65
2021/07/31 12:25:10;;;;;;;2.33;1.90;;;21.70;99.90;;;;;;5097156;28;20290;-64
2021/07/31 12:27:58;;;;;;;2.23;2.13;;;21.90;99.90;;;;;;5098080;28;20208;-64
2021/07/31 12:30:29;;;;;;;2.70;2.50;;;22.50;99.90;;;;;;5096771;28;20282;-64
2021/07/31 12:32:59;;;;;;;2.10;2.00;;;22.60;99.90;;;;;;5097747;28;20257;-64
2021/07/31 12:35:36;;;;;;;1.97;1.87;;;23.00;99.90;;;;;;5097838;28;20553;-66
2021/07/31 12:38:09;;;;;;;2.10;1.90;;;23.30;99.90;;;;;;5111756;27;20215;-64
2021/07/31 12:40:40;;;;;;;2.20;1.73;;;23.10;99.90;;;;;;5096907;28;20198;-65
2021/07/31 12:43:10;;;;;;;3.10;1.83;;;22.70;99.90;;;;;;5098378;28;20189;-64
2021/07/31 12:45:41;;;;;;;1.83;1.83;;;22.40;99.90;;;;;;5100660;28;20464;-64
2021/07/31 12:48:10;;;;;;;3.13;2.10;;;22.10;99.90;;;;;;5100862;28;20489;-65
2021/07/31 12:50:39;;;;;;;2.00;1.90;;;22.00;99.90;;;;;;5096944;28;20322;-64
2021/07/31 12:53:07;;;;;;;2.10;2.00;;;22.10;99.90;;;;;;5099736;28;20674;-64
2021/07/31 12:55:36;;;;;;;3.00;2.10;;;22.10;99.90;;;;;;5100369;28;20233;-64
2021/07/31 12:58:06;;;;;;;1.90;1.90;;;22.20;99.90;;;;;;5098546;27;20251;-65
2021/07/31 13:00:35;;;;;;;3.13;2.13;;;22.50;99.90;;;;;;5100410;28;20748;-65
2021/07/31 13:03:06;;;;;;;1.90;1.80;;;22.90;99.90;;;;;;5096016;28;20853;-65
2021/07/31 13:05:36;;;;;;;2.00;1.90;;;23.10;99.90;;;;;;5097980;28;20259;-64
2021/07/31 13:08:05;;;;;;;2.00;1.93;;;22.90;99.90;;;;;;5097822;28;20188;-64